sensor_id;sensor_type;location;lat;lon;timestamp;temperature;humidity
25622;DHT22;13487;39.360;22.962;2023-03-01T00:02:05;14.20;1.00
25622;DHT22;13487;39.360;22.962;2023-03-01T00:04:32;13.80;1.00
25622;DHT22;13487;39.360;22.962;2023-03-01T00:06:58;13.60;1.00
25622;DHT22;13487;39.360;22.962;2023-03-01T00:09:24;13.30;54.30
25622;DHT22;13487;39.360;22.962;2023-03-01T00:11:49;13.10;99.90
25622;DHT22;13487;39.360;22.962;2023-03-01T00:14:15;13.10;99.90
25622;DHT22;13487;39.360;22.962;2023-03-01T00:16:45;13.00;99.90
25622;DHT22;13487;39.360;22.962;2023-03-01T00:19:18;13.00;99.90
25622;DHT22;13487;39.360;22.962;2023-03-01T00:21:44;12.90;99.90
25622;DHT22;13487;39.360;22.962;2023-03-01T00:24:10;12.90;99.90
25622;DHT22;13487;39.360;22.962;2023-03-01T00:26:37;12.80;99.90
25622;DHT22;13487;39.360;22.962;2023-03-01T00:29:03;12.90;99.90
25622;DHT22;13487;39.360;22.962;2023-03-01T00:31:31;12.90;99.90
25622;DHT22;13487;39.360;22.962;2023-03-01T00:33:59;12.90;99.90
25622;DHT22;13487;39.360;22.962;2023-03-01T00:36:28;13.00;99.90
25622;DHT22;13487;39.360;22.962;2023-03-01T00:38:54;13.10;99.90
25622;DHT22;13487;39.360;22.962;2023-03-01T00:41:21;13.20;99.90
25622;DHT22;13487;39.360;22.962;2023-03-01T00:43:48;13.40;99.90
25622;DHT22;13487;39.360;22.962;2023-03-01T00:46:17;13.30;99.90
25622;DHT22;13487;39.360;22.962;2023-03-01T00:48:43;13.30;99.90
25622;DHT22;13487;39.360;22.962;2023-03-01T00:51:15;13.20;99.90
25622;DHT22;13487;39.360;22.962;2023-03-01T00:53:41;13.40;99.90
25622;DHT22;13487;39.360;22.962;2023-03-01T00:56:09;13.60;75.20
25622;DHT22;13487;39.360;22.962;2023-03-01T00:58:35;13.70;37.90
25622;DHT22;13487;39.360;22.962;2023-03-01T01:01:10;13.60;46.30
25622;DHT22;13487;39.360;22.962;2023-03-01T01:03:50;13.70;38.60
25622;DHT22;13487;39.360;22.962;2023-03-01T01:06:22;13.80;52.80
25622;DHT22;13487;39.360;22.962;2023-03-01T01:08:48;13.90;12.70
25622;DHT22;13487;39.360;22.962;2023-03-01T01:11:16;13.70;1.00
25622;DHT22;13487;39.360;22.962;2023-03-01T01:13:44;13.40;36.80
25622;DHT22;13487;39.360;22.962;2023-03-01T01:16:10;13.40;88.70
25622;DHT22;13487;39.360;22.962;2023-03-01T01:18:36;13.30;69.10
25622;DHT22;13487;39.360;22.962;2023-03-01T01:21:10;13.10;92.00
25622;DHT22;13487;39.360;22.962;2023-03-01T01:23:37;13.00;99.90
25622;DHT22;13487;39.360;22.962;2023-03-01T01:26:21;13.00;99.90
25622;DHT22;13487;39.360;22.962;2023-03-01T01:28:47;13.00;99.90
25622;DHT22;13487;39.360;22.962;2023-03-01T01:31:15;13.00;99.90
25622;DHT22;13487;39.360;22.962;2023-03-01T01:33:41;13.20;99.90
25622;DHT22;13487;39.360;22.962;2023-03-01T01:36:07;13.40;99.90
25622;DHT22;13487;39.360;22.962;2023-03-01T01:38:34;13.50;66.00
25622;DHT22;13487;39.360;22.962;2023-03-01T01:41:00;13.60;54.90
25622;DHT22;13487;39.360;22.962;2023-03-01T01:43:35;13.60;51.80
25622;DHT22;13487;39.360;22.962;2023-03-01T01:46:05;13.80;32.30
25622;DHT22;13487;39.360;22.962;2023-03-01T01:48:45;13.80;18.30
25622;DHT22;13487;39.360;22.962;2023-03-01T01:51:18;13.80;4.30
25622;DHT22;13487;39.360;22.962;2023-03-01T01:53:48;13.70;24.90
25622;DHT22;13487;39.360;22.962;2023-03-01T01:56:17;13.80;9.30
25622;DHT22;13487;39.360;22.962;2023-03-01T01:58:44;13.80;9.00
25622;DHT22;13487;39.360;22.962;2023-03-01T02:01:13;13.90;1.00
25622;DHT22;13487;39.360;22.962;2023-03-01T02:03:39;13.70;4.80
25622;DHT22;13487;39.360;22.962;2023-03-01T02:06:29;13.60;18.60
25622;DHT22;13487;39.360;22.962;2023-03-01T02:09:04;13.40;36.70
25622;DHT22;13487;39.360;22.962;2023-03-01T02:11:33;13.20;82.60
25622;DHT22;13487;39.360;22.962;2023-03-01T02:13:59;13.20;91.40
25622;DHT22;13487;39.360;22.962;2023-03-01T02:16:26;13.20;99.70
25622;DHT22;13487;39.360;22.962;2023-03-01T02:18:52;13.20;99.90
25622;DHT22;13487;39.360;22.962;2023-03-01T02:24:30;13.20;99.90
25622;DHT22;13487;39.360;22.962;2023-03-01T02:26:58;13.20;99.90
25622;DHT22;13487;39.360;22.962;2023-03-01T02:29:24;13.40;99.90
25622;DHT22;13487;39.360;22.962;2023-03-01T02:31:52;13.50;99.90
25622;DHT22;13487;39.360;22.962;2023-03-01T02:34:24;13.40;68.70
25622;DHT22;13487;39.360;22.962;2023-03-01T02:37:08;13.50;93.60
25622;DHT22;13487;39.360;22.962;2023-03-01T02:39:41;13.80;60.80
25622;DHT22;13487;39.360;22.962;2023-03-01T02:42:11;13.90;19.20
25622;DHT22;13487;39.360;22.962;2023-03-01T02:44:38;13.90;8.30
25622;DHT22;13487;39.360;22.962;2023-03-01T02:47:04;13.90;1.00
25622;DHT22;13487;39.360;22.962;2023-03-01T02:49:34;13.80;17.10
25622;DHT22;13487;39.360;22.962;2023-03-01T02:52:27;13.80;18.80
25622;DHT22;13487;39.360;22.962;2023-03-01T02:55:10;13.70;5.90
25622;DHT22;13487;39.360;22.962;2023-03-01T02:57:40;13.50;26.70
25622;DHT22;13487;39.360;22.962;2023-03-01T03:02:45;13.50;83.60
25622;DHT22;13487;39.360;22.962;2023-03-01T03:05:20;13.50;86.40
25622;DHT22;13487;39.360;22.962;2023-03-01T03:07:48;13.50;99.00
25622;DHT22;13487;39.360;22.962;2023-03-01T03:10:20;13.40;99.90
25622;DHT22;13487;39.360;22.962;2023-03-01T03:12:54;13.30;99.90
25622;DHT22;13487;39.360;22.962;2023-03-01T03:15:21;13.30;99.90
25622;DHT22;13487;39.360;22.962;2023-03-01T03:17:48;13.30;99.90
25622;DHT22;13487;39.360;22.962;2023-03-01T03:20:16;13.30;99.90
25622;DHT22;13487;39.360;22.962;2023-03-01T03:22:49;13.60;99.90
25622;DHT22;13487;39.360;22.962;2023-03-01T03:25:17;13.80;97.80
25622;DHT22;13487;39.360;22.962;2023-03-01T03:27:44;13.90;74.20
25622;DHT22;13487;39.360;22.962;2023-03-01T03:30:14;14.00;28.30
25622;DHT22;13487;39.360;22.962;2023-03-01T03:32:41;13.80;39.40
25622;DHT22;13487;39.360;22.962;2023-03-01T03:35:09;13.60;82.20
25622;DHT22;13487;39.360;22.962;2023-03-01T03:37:39;13.40;93.90
25622;DHT22;13487;39.360;22.962;2023-03-01T03:40:24;13.40;99.90
25622;DHT22;13487;39.360;22.962;2023-03-01T03:42:50;13.30;99.90
25622;DHT22;13487;39.360;22.962;2023-03-01T03:45:17;13.30;99.90
25622;DHT22;13487;39.360;22.962;2023-03-01T03:47:44;13.30;99.90
25622;DHT22;13487;39.360;22.962;2023-03-01T03:50:11;13.30;99.90
25622;DHT22;13487;39.360;22.962;2023-03-01T03:52:37;13.40;99.90
25622;DHT22;13487;39.360;22.962;2023-03-01T03:55:04;13.40;99.90
25622;DHT22;13487;39.360;22.962;2023-03-01T03:57:35;13.40;99.90
25622;DHT22;13487;39.360;22.962;2023-03-01T04:00:01;13.50;99.90
25622;DHT22;13487;39.360;22.962;2023-03-01T04:02:29;13.70;99.90
25622;DHT22;13487;39.360;22.962;2023-03-01T04:04:55;13.90;91.70
25622;DHT22;13487;39.360;22.962;2023-03-01T04:07:20;13.90;52.30
25622;DHT22;13487;39.360;22.962;2023-03-01T04:09:46;14.10;22.50
25622;DHT22;13487;39.360;22.962;2023-03-01T04:12:12;14.10;4.90
25622;DHT22;13487;39.360;22.962;2023-03-01T04:14:38;14.10;3.40
25622;DHT22;13487;39.360;22.962;2023-03-01T04:17:04;14.10;1.00
25622;DHT22;13487;39.360;22.962;2023-03-01T04:19:33;14.10;1.00
25622;DHT22;13487;39.360;22.962;2023-03-01T04:22:04;14.20;1.00
25622;DHT22;13487;39.360;22.962;2023-03-01T04:24:35;14.20;1.00
25622;DHT22;13487;39.360;22.962;2023-03-01T04:27:02;14.00;1.00
25622;DHT22;13487;39.360;22.962;2023-03-01T04:29:28;13.90;1.00
25622;DHT22;13487;39.360;22.962;2023-03-01T04:31:54;13.90;2.30
25622;DHT22;13487;39.360;22.962;2023-03-01T04:34:19;14.10;1.00
25622;DHT22;13487;39.360;22.962;2023-03-01T04:36:45;14.10;1.00
25622;DHT22;13487;39.360;22.962;2023-03-01T04:39:11;14.20;1.00
25622;DHT22;13487;39.360;22.962;2023-03-01T04:41:40;14.20;1.00
25622;DHT22;13487;39.360;22.962;2023-03-01T04:44:07;14.20;1.00
25622;DHT22;13487;39.360;22.962;2023-03-01T04:46:35;14.30;1.00
25622;DHT22;13487;39.360;22.962;2023-03-01T04:49:02;14.20;1.00
25622;DHT22;13487;39.360;22.962;2023-03-01T04:51:28;14.30;1.00
25622;DHT22;13487;39.360;22.962;2023-03-01T04:53:54;14.30;1.00
25622;DHT22;13487;39.360;22.962;2023-03-01T04:56:20;14.10;1.00
25622;DHT22;13487;39.360;22.962;2023-03-01T04:58:48;14.10;1.00
25622;DHT22;13487;39.360;22.962;2023-03-01T05:01:17;14.20;1.00
25622;DHT22;13487;39.360;22.962;2023-03-01T05:03:44;14.30;1.00
25622;DHT22;13487;39.360;22.962;2023-03-01T05:06:11;14.30;1.00
25622;DHT22;13487;39.360;22.962;2023-03-01T05:08:38;14.30;1.00
25622;DHT22;13487;39.360;22.962;2023-03-01T05:11:04;14.30;1.00
25622;DHT22;13487;39.360;22.962;2023-03-01T05:13:31;14.30;1.00
25622;DHT22;13487;39.360;22.962;2023-03-01T05:15:59;14.30;1.00
25622;DHT22;13487;39.360;22.962;2023-03-01T05:18:27;14.30;1.00
25622;DHT22;13487;39.360;22.962;2023-03-01T05:20:55;14.30;1.00
25622;DHT22;13487;39.360;22.962;2023-03-01T05:23:24;14.30;1.00
25622;DHT22;13487;39.360;22.962;2023-03-01T05:25:50;14.40;1.00
25622;DHT22;13487;39.360;22.962;2023-03-01T05:28:18;14.50;1.00
25622;DHT22;13487;39.360;22.962;2023-03-01T05:30:45;14.50;1.00
25622;DHT22;13487;39.360;22.962;2023-03-01T05:33:11;14.40;1.00
25622;DHT22;13487;39.360;22.962;2023-03-01T05:35:44;14.40;1.00
25622;DHT22;13487;39.360;22.962;2023-03-01T05:38:11;14.50;1.00
25622;DHT22;13487;39.360;22.962;2023-03-01T05:40:40;14.40;1.00
25622;DHT22;13487;39.360;22.962;2023-03-01T05:43:06;14.40;1.00
25622;DHT22;13487;39.360;22.962;2023-03-01T05:45:32;14.40;1.00
25622;DHT22;13487;39.360;22.962;2023-03-01T05:47:58;14.50;1.00
25622;DHT22;13487;39.360;22.962;2023-03-01T05:50:26;14.50;1.00
25622;DHT22;13487;39.360;22.962;2023-03-01T05:52:58;14.60;1.00
25622;DHT22;13487;39.360;22.962;2023-03-01T05:55:24;14.60;1.00
25622;DHT22;13487;39.360;22.962;2023-03-01T05:57:50;14.60;1.00
25622;DHT22;13487;39.360;22.962;2023-03-01T06:00:19;14.60;1.00
25622;DHT22;13487;39.360;22.962;2023-03-01T06:02:45;14.60;1.00
25622;DHT22;13487;39.360;22.962;2023-03-01T06:05:12;14.60;1.00
25622;DHT22;13487;39.360;22.962;2023-03-01T06:07:39;14.50;1.00
25622;DHT22;13487;39.360;22.962;2023-03-01T06:10:06;14.50;1.00
25622;DHT22;13487;39.360;22.962;2023-03-01T06:12:35;14.50;1.00
25622;DHT22;13487;39.360;22.962;2023-03-01T06:15:02;14.50;1.00
25622;DHT22;13487;39.360;22.962;2023-03-01T06:17:30;14.50;1.00
25622;DHT22;13487;39.360;22.962;2023-03-01T06:19:56;14.40;1.00
25622;DHT22;13487;39.360;22.962;2023-03-01T06:22:22;14.60;1.00
25622;DHT22;13487;39.360;22.962;2023-03-01T06:24:48;14.60;1.00
25622;DHT22;13487;39.360;22.962;2023-03-01T06:27:14;14.60;1.00
25622;DHT22;13487;39.360;22.962;2023-03-01T06:29:40;14.50;1.00
25622;DHT22;13487;39.360;22.962;2023-03-01T06:32:06;14.50;1.00
25622;DHT22;13487;39.360;22.962;2023-03-01T06:34:33;14.70;1.00
25622;DHT22;13487;39.360;22.962;2023-03-01T06:36:59;14.80;1.00
25622;DHT22;13487;39.360;22.962;2023-03-01T06:39:31;14.90;1.00
25622;DHT22;13487;39.360;22.962;2023-03-01T06:41:57;14.80;1.00
25622;DHT22;13487;39.360;22.962;2023-03-01T06:44:23;14.80;1.00
25622;DHT22;13487;39.360;22.962;2023-03-01T06:46:49;14.60;1.00
25622;DHT22;13487;39.360;22.962;2023-03-01T06:49:15;14.20;1.00
25622;DHT22;13487;39.360;22.962;2023-03-01T06:51:43;14.40;1.00
25622;DHT22;13487;39.360;22.962;2023-03-01T06:54:10;14.50;1.00
25622;DHT22;13487;39.360;22.962;2023-03-01T06:56:36;14.50;1.00
25622;DHT22;13487;39.360;22.962;2023-03-01T06:59:02;14.50;1.00
25622;DHT22;13487;39.360;22.962;2023-03-01T07:01:29;14.30;1.00
25622;DHT22;13487;39.360;22.962;2023-03-01T07:03:55;14.50;1.00
25622;DHT22;13487;39.360;22.962;2023-03-01T07:06:21;14.60;1.00
25622;DHT22;13487;39.360;22.962;2023-03-01T07:08:47;14.60;1.00
25622;DHT22;13487;39.360;22.962;2023-03-01T07:11:13;14.50;1.00
25622;DHT22;13487;39.360;22.962;2023-03-01T07:13:39;14.50;1.00
25622;DHT22;13487;39.360;22.962;2023-03-01T07:16:06;14.40;1.00
25622;DHT22;13487;39.360;22.962;2023-03-01T07:18:32;14.40;1.00
25622;DHT22;13487;39.360;22.962;2023-03-01T07:20:57;14.40;1.00
25622;DHT22;13487;39.360;22.962;2023-03-01T07:23:23;14.30;22.60
25622;DHT22;13487;39.360;22.962;2023-03-01T07:25:55;14.40;11.30
25622;DHT22;13487;39.360;22.962;2023-03-01T07:28:24;14.30;10.00
25622;DHT22;13487;39.360;22.962;2023-03-01T07:30:50;14.40;4.80
25622;DHT22;13487;39.360;22.962;2023-03-01T07:33:17;14.30;1.00
25622;DHT22;13487;39.360;22.962;2023-03-01T07:35:42;14.50;1.00
25622;DHT22;13487;39.360;22.962;2023-03-01T07:38:08;14.50;1.00
25622;DHT22;13487;39.360;22.962;2023-03-01T07:40:35;14.40;1.00
25622;DHT22;13487;39.360;22.962;2023-03-01T07:43:00;14.40;1.00
25622;DHT22;13487;39.360;22.962;2023-03-01T07:45:27;14.30;3.80
25622;DHT22;13487;39.360;22.962;2023-03-01T07:47:54;14.30;17.30
25622;DHT22;13487;39.360;22.962;2023-03-01T07:50:20;14.40;8.90
25622;DHT22;13487;39.360;22.962;2023-03-01T07:52:47;14.40;4.20
25622;DHT22;13487;39.360;22.962;2023-03-01T07:55:14;14.40;16.20
25622;DHT22;13487;39.360;22.962;2023-03-01T07:57:40;14.40;5.10
25622;DHT22;13487;39.360;22.962;2023-03-01T08:00:06;14.50;12.50
25622;DHT22;13487;39.360;22.962;2023-03-01T08:02:33;14.50;15.10
25622;DHT22;13487;39.360;22.962;2023-03-01T08:04:58;14.50;12.80
25622;DHT22;13487;39.360;22.962;2023-03-01T08:07:24;14.40;17.60
25622;DHT22;13487;39.360;22.962;2023-03-01T08:09:50;14.50;13.60
25622;DHT22;13487;39.360;22.962;2023-03-01T08:12:15;14.60;9.20
25622;DHT22;13487;39.360;22.962;2023-03-01T08:14:44;14.60;7.70
25622;DHT22;13487;39.360;22.962;2023-03-01T08:17:10;14.70;8.20
25622;DHT22;13487;39.360;22.962;2023-03-01T08:19:38;14.70;1.00
25622;DHT22;13487;39.360;22.962;2023-03-01T08:22:04;14.60;1.00
25622;DHT22;13487;39.360;22.962;2023-03-01T08:24:30;14.80;1.00
25622;DHT22;13487;39.360;22.962;2023-03-01T08:26:56;14.70;1.00
25622;DHT22;13487;39.360;22.962;2023-03-01T08:29:22;14.60;1.00
25622;DHT22;13487;39.360;22.962;2023-03-01T08:31:48;14.50;17.10
25622;DHT22;13487;39.360;22.962;2023-03-01T08:34:16;14.40;34.40
25622;DHT22;13487;39.360;22.962;2023-03-01T08:36:44;14.40;33.70
25622;DHT22;13487;39.360;22.962;2023-03-01T08:39:13;14.40;51.30
25622;DHT22;13487;39.360;22.962;2023-03-01T08:41:39;14.50;25.80
25622;DHT22;13487;39.360;22.962;2023-03-01T08:44:06;14.40;24.70
25622;DHT22;13487;39.360;22.962;2023-03-01T08:46:34;14.40;23.10
25622;DHT22;13487;39.360;22.962;2023-03-01T08:49:04;14.40;17.10
25622;DHT22;13487;39.360;22.962;2023-03-01T08:51:31;14.40;5.20
25622;DHT22;13487;39.360;22.962;2023-03-01T08:54:05;14.30;15.30
25622;DHT22;13487;39.360;22.962;2023-03-01T08:56:31;14.30;1.00
25622;DHT22;13487;39.360;22.962;2023-03-01T08:58:57;14.40;1.90
25622;DHT22;13487;39.360;22.962;2023-03-01T09:01:23;14.30;1.00
25622;DHT22;13487;39.360;22.962;2023-03-01T09:03:49;14.30;3.30
25622;DHT22;13487;39.360;22.962;2023-03-01T09:06:15;14.30;1.00
25622;DHT22;13487;39.360;22.962;2023-03-01T09:08:44;14.50;1.00
25622;DHT22;13487;39.360;22.962;2023-03-01T09:11:12;14.40;1.00
25622;DHT22;13487;39.360;22.962;2023-03-01T09:13:39;14.50;1.00
25622;DHT22;13487;39.360;22.962;2023-03-01T09:16:07;14.20;20.40
25622;DHT22;13487;39.360;22.962;2023-03-01T09:18:34;14.30;63.70
25622;DHT22;13487;39.360;22.962;2023-03-01T09:21:03;14.20;57.00
25622;DHT22;13487;39.360;22.962;2023-03-01T09:23:40;14.00;69.70
25622;DHT22;13487;39.360;22.962;2023-03-01T09:26:08;13.90;82.90
25622;DHT22;13487;39.360;22.962;2023-03-01T09:28:35;14.00;70.60
25622;DHT22;13487;39.360;22.962;2023-03-01T09:31:02;14.00;80.60
25622;DHT22;13487;39.360;22.962;2023-03-01T09:33:30;14.10;54.30
25622;DHT22;13487;39.360;22.962;2023-03-01T09:35:58;14.30;34.50
25622;DHT22;13487;39.360;22.962;2023-03-01T09:38:24;14.50;9.40
25622;DHT22;13487;39.360;22.962;2023-03-01T09:40:50;14.50;9.90
25622;DHT22;13487;39.360;22.962;2023-03-01T09:43:51;14.50;25.00
25622;DHT22;13487;39.360;22.962;2023-03-01T09:46:23;14.70;2.00
25622;DHT22;13487;39.360;22.962;2023-03-01T09:48:53;14.50;1.00
25622;DHT22;13487;39.360;22.962;2023-03-01T09:51:31;14.60;1.00
25622;DHT22;13487;39.360;22.962;2023-03-01T09:53:58;14.60;1.00
25622;DHT22;13487;39.360;22.962;2023-03-01T09:56:47;14.60;1.00
25622;DHT22;13487;39.360;22.962;2023-03-01T10:02:24;14.70;1.00
25622;DHT22;13487;39.360;22.962;2023-03-01T10:05:05;14.70;1.00
25622;DHT22;13487;39.360;22.962;2023-03-01T10:07:50;14.80;1.00
25622;DHT22;13487;39.360;22.962;2023-03-01T10:10:37;15.10;1.00
25622;DHT22;13487;39.360;22.962;2023-03-01T10:13:15;15.00;1.00
25622;DHT22;13487;39.360;22.962;2023-03-01T10:15:52;15.10;1.00
25622;DHT22;13487;39.360;22.962;2023-03-01T10:18:24;15.20;1.00
25622;DHT22;13487;39.360;22.962;2023-03-01T10:20:57;15.40;1.00
25622;DHT22;13487;39.360;22.962;2023-03-01T10:23:25;15.60;1.00
25622;DHT22;13487;39.360;22.962;2023-03-01T10:26:18;15.50;1.00
25622;DHT22;13487;39.360;22.962;2023-03-01T10:31:25;15.70;1.00
25622;DHT22;13487;39.360;22.962;2023-03-01T10:33:55;15.60;1.00
25622;DHT22;13487;39.360;22.962;2023-03-01T10:36:24;15.70;1.00
25622;DHT22;13487;39.360;22.962;2023-03-01T10:38:55;15.60;1.00
25622;DHT22;13487;39.360;22.962;2023-03-01T10:41:24;15.40;99.90
25622;DHT22;13487;39.360;22.962;2023-03-01T10:43:55;15.40;99.90
25622;DHT22;13487;39.360;22.962;2023-03-01T10:46:31;15.30;99.90
25622;DHT22;13487;39.360;22.962;2023-03-01T10:49:17;15.30;1.00
25622;DHT22;13487;39.360;22.962;2023-03-01T10:51:45;15.40;1.00
25622;DHT22;13487;39.360;22.962;2023-03-01T10:54:21;15.30;1.00
25622;DHT22;13487;39.360;22.962;2023-03-01T10:56:56;15.30;1.00
25622;DHT22;13487;39.360;22.962;2023-03-01T10:59:34;15.20;1.00
25622;DHT22;13487;39.360;22.962;2023-03-01T11:02:23;15.40;1.00
25622;DHT22;13487;39.360;22.962;2023-03-01T11:07:54;15.20;1.00
25622;DHT22;13487;39.360;22.962;2023-03-01T11:10:30;15.20;1.00
25622;DHT22;13487;39.360;22.962;2023-03-01T11:13:15;15.30;1.00
25622;DHT22;13487;39.360;22.962;2023-03-01T11:15:42;15.40;1.00
25622;DHT22;13487;39.360;22.962;2023-03-01T11:18:22;15.50;99.90
25622;DHT22;13487;39.360;22.962;2023-03-01T11:20:48;15.50;99.90
25622;DHT22;13487;39.360;22.962;2023-03-01T11:23:17;15.40;99.90
25622;DHT22;13487;39.360;22.962;2023-03-01T11:25:59;15.20;99.90
25622;DHT22;13487;39.360;22.962;2023-03-01T11:28:28;15.10;1.00
25622;DHT22;13487;39.360;22.962;2023-03-01T11:31:05;15.20;1.00
25622;DHT22;13487;39.360;22.962;2023-03-01T11:33:52;15.20;1.00
25622;DHT22;13487;39.360;22.962;2023-03-01T11:38:45;15.30;1.00
25622;DHT22;13487;39.360;22.962;2023-03-01T11:41:18;15.30;1.00
25622;DHT22;13487;39.360;22.962;2023-03-01T11:43:59;15.20;1.00
25622;DHT22;13487;39.360;22.962;2023-03-01T11:51:45;15.40;1.00
25622;DHT22;13487;39.360;22.962;2023-03-01T11:54:53;15.40;1.00
25622;DHT22;13487;39.360;22.962;2023-03-01T12:05:41;15.20;1.00
25622;DHT22;13487;39.360;22.962;2023-03-01T12:27:33;15.60;1.00
25622;DHT22;13487;39.360;22.962;2023-03-01T12:43:26;15.00;1.00
25622;DHT22;13487;39.360;22.962;2023-03-01T12:46:05;15.40;1.00
25622;DHT22;13487;39.360;22.962;2023-03-01T12:48:47;15.50;1.00
25622;DHT22;13487;39.360;22.962;2023-03-01T12:51:19;15.50;1.00
25622;DHT22;13487;39.360;22.962;2023-03-01T12:53:51;15.60;1.00
25622;DHT22;13487;39.360;22.962;2023-03-01T12:56:22;15.70;1.00
25622;DHT22;13487;39.360;22.962;2023-03-01T12:58:54;15.60;1.00
25622;DHT22;13487;39.360;22.962;2023-03-01T13:10:11;15.80;99.90
25622;DHT22;13487;39.360;22.962;2023-03-01T13:17:51;15.90;99.90
25622;DHT22;13487;39.360;22.962;2023-03-01T13:20:45;15.90;57.20
25622;DHT22;13487;39.360;22.962;2023-03-01T13:26:07;16.10;1.00
25622;DHT22;13487;39.360;22.962;2023-03-01T13:39:01;16.50;99.90
25622;DHT22;13487;39.360;22.962;2023-03-01T13:49:48;16.50;99.90
25622;DHT22;13487;39.360;22.962;2023-03-01T13:52:36;16.50;99.90
25622;DHT22;13487;39.360;22.962;2023-03-01T13:55:17;16.40;99.90
25622;DHT22;13487;39.360;22.962;2023-03-01T13:57:47;16.20;99.90
25622;DHT22;13487;39.360;22.962;2023-03-01T14:03:00;16.00;84.70
25622;DHT22;13487;39.360;22.962;2023-03-01T14:05:26;15.90;1.00
25622;DHT22;13487;39.360;22.962;2023-03-01T14:07:52;15.90;1.00
25622;DHT22;13487;39.360;22.962;2023-03-01T14:10:18;15.80;1.00
25622;DHT22;13487;39.360;22.962;2023-03-01T14:15:20;15.50;1.00
25622;DHT22;13487;39.360;22.962;2023-03-01T14:18:02;15.40;69.00
25622;DHT22;13487;39.360;22.962;2023-03-01T14:20:33;15.40;99.90
25622;DHT22;13487;39.360;22.962;2023-03-01T14:23:10;15.40;99.90
25622;DHT22;13487;39.360;22.962;2023-03-01T14:25:37;15.40;63.40
25622;DHT22;13487;39.360;22.962;2023-03-01T14:28:12;15.50;1.00
25622;DHT22;13487;39.360;22.962;2023-03-01T14:30:59;15.50;1.00
25622;DHT22;13487;39.360;22.962;2023-03-01T14:33:33;15.40;1.00
25622;DHT22;13487;39.360;22.962;2023-03-01T14:36:00;15.50;1.00
25622;DHT22;13487;39.360;22.962;2023-03-01T14:38:33;15.40;1.00
25622;DHT22;13487;39.360;22.962;2023-03-01T14:41:03;15.40;1.00
25622;DHT22;13487;39.360;22.962;2023-03-01T14:43:30;15.30;1.00
25622;DHT22;13487;39.360;22.962;2023-03-01T14:45:57;15.10;1.00
25622;DHT22;13487;39.360;22.962;2023-03-01T14:48:23;15.10;99.90
25622;DHT22;13487;39.360;22.962;2023-03-01T14:50:50;15.20;99.90
25622;DHT22;13487;39.360;22.962;2023-03-01T14:53:24;15.50;1.00
25622;DHT22;13487;39.360;22.962;2023-03-01T14:55:53;15.50;1.00
25622;DHT22;13487;39.360;22.962;2023-03-01T14:58:24;15.60;1.00
25622;DHT22;13487;39.360;22.962;2023-03-01T15:00:59;15.60;1.00
25622;DHT22;13487;39.360;22.962;2023-03-01T15:03:35;15.50;1.00
25622;DHT22;13487;39.360;22.962;2023-03-01T15:06:04;15.40;1.00
25622;DHT22;13487;39.360;22.962;2023-03-01T15:08:31;15.20;99.90
25622;DHT22;13487;39.360;22.962;2023-03-01T15:13:33;15.30;99.90
25622;DHT22;13487;39.360;22.962;2023-03-01T15:16:09;15.40;1.00
25622;DHT22;13487;39.360;22.962;2023-03-01T15:18:36;15.40;99.90
25622;DHT22;13487;39.360;22.962;2023-03-01T15:21:09;15.40;99.90
25622;DHT22;13487;39.360;22.962;2023-03-01T15:23:37;15.40;48.30
25622;DHT22;13487;39.360;22.962;2023-03-01T15:26:04;15.30;99.90
25622;DHT22;13487;39.360;22.962;2023-03-01T15:28:36;15.40;99.90
25622;DHT22;13487;39.360;22.962;2023-03-01T15:31:18;15.30;99.90
25622;DHT22;13487;39.360;22.962;2023-03-01T15:33:45;15.40;99.90
25622;DHT22;13487;39.360;22.962;2023-03-01T15:36:42;15.30;99.90
25622;DHT22;13487;39.360;22.962;2023-03-01T15:42:08;15.40;99.90
25622;DHT22;13487;39.360;22.962;2023-03-01T15:44:37;15.20;99.90
25622;DHT22;13487;39.360;22.962;2023-03-01T15:47:26;15.30;99.90
25622;DHT22;13487;39.360;22.962;2023-03-01T15:49:54;15.40;99.90
25622;DHT22;13487;39.360;22.962;2023-03-01T15:52:41;15.20;99.90
25622;DHT22;13487;39.360;22.962;2023-03-01T15:55:18;15.40;99.90
25622;DHT22;13487;39.360;22.962;2023-03-01T15:57:45;15.10;1.00
25622;DHT22;13487;39.360;22.962;2023-03-01T16:00:12;15.10;1.00
25622;DHT22;13487;39.360;22.962;2023-03-01T16:02:42;15.20;1.00
25622;DHT22;13487;39.360;22.962;2023-03-01T16:07:41;15.10;1.00
25622;DHT22;13487;39.360;22.962;2023-03-01T16:10:07;15.20;99.90
25622;DHT22;13487;39.360;22.962;2023-03-01T16:12:33;15.10;99.90
25622;DHT22;13487;39.360;22.962;2023-03-01T16:14:58;15.10;1.00
25622;DHT22;13487;39.360;22.962;2023-03-01T16:17:24;15.20;99.90
25622;DHT22;13487;39.360;22.962;2023-03-01T16:19:51;15.10;1.00
25622;DHT22;13487;39.360;22.962;2023-03-01T16:22:17;15.00;1.00
25622;DHT22;13487;39.360;22.962;2023-03-01T16:24:42;14.90;1.00
25622;DHT22;13487;39.360;22.962;2023-03-01T16:27:08;14.70;1.00
25622;DHT22;13487;39.360;22.962;2023-03-01T16:29:35;14.50;1.00
25622;DHT22;13487;39.360;22.962;2023-03-01T16:32:01;14.60;1.00
25622;DHT22;13487;39.360;22.962;2023-03-01T16:34:27;14.70;1.00
25622;DHT22;13487;39.360;22.962;2023-03-01T16:36:53;14.60;1.00
25622;DHT22;13487;39.360;22.962;2023-03-01T16:39:19;14.60;1.00
25622;DHT22;13487;39.360;22.962;2023-03-01T16:41:45;14.60;1.00
25622;DHT22;13487;39.360;22.962;2023-03-01T16:44:10;14.60;1.00
25622;DHT22;13487;39.360;22.962;2023-03-01T16:46:36;14.70;1.00
25622;DHT22;13487;39.360;22.962;2023-03-01T16:49:02;14.60;1.00
25622;DHT22;13487;39.360;22.962;2023-03-01T16:51:28;14.50;1.00
25622;DHT22;13487;39.360;22.962;2023-03-01T16:53:55;14.60;1.00
25622;DHT22;13487;39.360;22.962;2023-03-01T16:56:21;14.70;1.00
25622;DHT22;13487;39.360;22.962;2023-03-01T16:58:47;14.70;1.00
25622;DHT22;13487;39.360;22.962;2023-03-01T17:01:19;14.70;1.00
25622;DHT22;13487;39.360;22.962;2023-03-01T17:03:46;14.70;1.00
25622;DHT22;13487;39.360;22.962;2023-03-01T17:06:16;14.80;1.00
25622;DHT22;13487;39.360;22.962;2023-03-01T17:08:42;14.80;1.00
25622;DHT22;13487;39.360;22.962;2023-03-01T17:11:10;14.80;1.00
25622;DHT22;13487;39.360;22.962;2023-03-01T17:13:37;14.80;1.00
25622;DHT22;13487;39.360;22.962;2023-03-01T17:16:08;14.70;1.00
25622;DHT22;13487;39.360;22.962;2023-03-01T17:18:35;14.80;1.00
25622;DHT22;13487;39.360;22.962;2023-03-01T17:21:01;14.70;1.00
25622;DHT22;13487;39.360;22.962;2023-03-01T17:23:28;14.60;1.00
25622;DHT22;13487;39.360;22.962;2023-03-01T17:25:54;14.50;1.00
25622;DHT22;13487;39.360;22.962;2023-03-01T17:28:26;14.50;1.00
25622;DHT22;13487;39.360;22.962;2023-03-01T17:30:55;14.40;1.00
25622;DHT22;13487;39.360;22.962;2023-03-01T17:33:21;14.20;1.00